Time;durP1;ratioP1;P1;durP2;ratioP2;P2;SDS_P1;SDS_P2;PMS_P1;PMS_P2;Temp;Humidity;BMP_temperature;BMP_pressure;BME280_temperature;BME280_humidity;BME280_pressure;Samples;Min_cycle;Max_cycle;Signal;HPM_P1;HPM_P2
2021/03/13 00:01:13;;;;;;;71.45;35.92;;;;;;;-1.92;100.00;101192.75;4990136;28;20080;-75
2021/03/13 00:03:39;;;;;;;111.72;45.17;;;;;;;-1.81;100.00;101184.16;4988112;28;20458;-74
2021/03/13 00:06:06;;;;;;;113.80;45.83;;;;;;;-1.82;100.00;101182.50;4995138;28;20101;-74
2021/03/13 00:08:35;;;;;;;86.60;41.28;;;;;;;-2.08;100.00;101180.06;4990598;28;20034;-74
2021/03/13 00:11:01;;;;;;;83.75;40.50;;;;;;;-2.23;100.00;101181.16;4993335;28;20046;-74
2021/03/13 00:13:26;;;;;;;87.65;41.25;;;;;;;-2.23;100.00;101171.59;4985793;28;20046;-75
2021/03/13 00:15:52;;;;;;;153.27;71.18;;;;;;;-2.35;100.00;101170.69;4976287;28;20022;-75
2021/03/13 00:18:17;;;;;;;136.10;62.95;;;;;;;-2.36;100.00;101173.41;4993250;28;20030;-74
2021/03/13 00:20:44;;;;;;;130.00;57.13;;;;;;;-2.66;100.00;101182.50;4996343;28;20030;-74
2021/03/13 00:23:10;;;;;;;122.55;53.90;;;;;;;-2.65;100.00;101175.50;4986564;28;20031;-74
2021/03/13 00:25:37;;;;;;;92.40;42.55;;;;;;;-2.17;100.00;101172.91;4977709;28;20117;-74
2021/03/13 00:28:03;;;;;;;97.55;45.58;;;;;;;-2.12;100.00;101166.44;4991493;28;20030;-74
2021/03/13 00:30:31;;;;;;;92.82;43.03;;;;;;;-2.32;100.00;101159.25;4970198;28;20323;-75
2021/03/13 00:33:02;;;;;;;90.28;42.28;;;;;;;-2.08;100.00;101160.06;4986845;28;20033;-74
2021/03/13 00:35:30;;;;;;;85.25;41.40;;;;;;;-2.03;100.00;101151.06;4995163;28;20423;-74
2021/03/13 00:37:56;;;;;;;92.55;43.22;;;;;;;-2.11;100.00;101151.66;4990054;28;20085;-74
2021/03/13 00:40:24;;;;;;;176.35;61.08;;;;;;;-1.94;100.00;101145.16;4991232;28;20026;-75
2021/03/13 00:42:50;;;;;;;157.70;53.72;;;;;;;-2.09;100.00;101152.34;4968466;28;20034;-75
2021/03/13 00:45:19;;;;;;;139.07;52.88;;;;;;;-2.08;100.00;101156.63;4988019;28;20022;-75
2021/03/13 00:47:45;;;;;;;145.95;58.33;;;;;;;-1.94;100.00;101142.56;4986650;28;20037;-75
2021/03/13 00:50:12;;;;;;;118.75;50.45;;;;;;;-1.95;100.00;101143.53;4994365;28;20022;-74
2021/03/13 00:52:38;;;;;;;101.50;45.55;;;;;;;-1.90;100.00;101131.81;4988770;28;20459;-74
2021/03/13 00:55:06;;;;;;;147.07;54.35;;;;;;;-1.80;100.00;101137.16;4987089;28;20044;-75
2021/03/13 00:57:32;;;;;;;145.38;53.72;;;;;;;-1.82;100.00;101130.41;4975629;28;20030;-75
2021/03/13 00:59:57;;;;;;;128.52;47.70;;;;;;;-1.78;100.00;101118.84;4972961;28;20494;-74
2021/03/13 01:02:23;;;;;;;109.60;47.20;;;;;;;-2.03;100.00;101122.41;4982126;28;20023;-74
2021/03/13 01:04:48;;;;;;;117.43;51.85;;;;;;;-2.29;100.00;101108.75;4991049;28;20027;-74
2021/03/13 01:07:13;;;;;;;90.60;43.95;;;;;;;-1.83;100.00;101103.53;4983499;28;20035;-75
2021/03/13 01:09:39;;;;;;;90.22;41.65;;;;;;;-1.71;100.00;101093.97;4990831;28;20023;-74
2021/03/13 01:12:06;;;;;;;76.57;38.67;;;;;;;-1.53;100.00;101094.34;4980571;28;20050;-74
2021/03/13 01:14:31;;;;;;;64.15;33.97;;;;;;;-1.64;100.00;101100.34;4975609;28;20026;-74
2021/03/13 01:16:56;;;;;;;66.18;35.45;;;;;;;-1.54;100.00;101095.25;4988260;28;20031;-75
2021/03/13 01:19:22;;;;;;;75.45;37.85;;;;;;;-1.58;100.00;101086.84;4985589;28;20030;-75
2021/03/13 01:21:47;;;;;;;68.30;34.72;;;;;;;-1.70;100.00;101083.41;4990373;28;20018;-74
2021/03/13 01:24:13;;;;;;;65.95;31.40;;;;;;;-1.88;100.00;101083.03;4989836;28;20030;-74
2021/03/13 01:26:39;;;;;;;63.67;33.25;;;;;;;-1.78;100.00;101074.56;4988871;28;20072;-75
2021/03/13 01:29:05;;;;;;;63.50;32.58;;;;;;;-1.88;100.00;101071.81;4992484;28;20112;-74
2021/03/13 01:31:31;;;;;;;70.50;34.60;;;;;;;-1.76;100.00;101052.63;4984377;28;20035;-75
2021/03/13 01:33:56;;;;;;;64.75;33.83;;;;;;;-1.76;100.00;101036.19;4969679;28;20023;-74
2021/03/13 01:36:22;;;;;;;68.78;34.05;;;;;;;-1.77;100.00;101042.34;4966656;28;20022;-74
2021/03/13 01:38:47;;;;;;;76.00;35.80;;;;;;;-1.90;100.00;101048.50;4967669;28;20042;-74
2021/03/13 01:41:13;;;;;;;71.55;34.45;;;;;;;-1.77;100.00;101047.56;4971743;28;20031;-74
2021/03/13 01:43:39;;;;;;;70.63;36.30;;;;;;;-1.80;100.00;101043.41;4975050;28;20053;-74
2021/03/13 01:46:05;;;;;;;74.95;35.90;;;;;;;-1.86;100.00;101055.13;4973015;28;20044;-75
2021/03/13 01:48:34;;;;;;;69.65;35.42;;;;;;;-1.77;100.00;101053.59;4991006;28;20034;-75
2021/03/13 01:51:01;;;;;;;66.72;35.85;;;;;;;-1.77;100.00;101051.00;4973555;28;20041;-74
2021/03/13 01:53:27;;;;;;;64.68;34.75;;;;;;;-1.56;100.00;101047.69;4983472;28;20037;-74
2021/03/13 01:55:53;;;;;;;63.10;35.03;;;;;;;-1.70;100.00;101051.34;4976205;28;20026;-74
2021/03/13 01:58:19;;;;;;;61.03;32.90;;;;;;;-1.86;100.00;101051.69;4970436;28;20037;-74
2021/03/13 02:00:44;;;;;;;55.33;30.20;;;;;;;-1.79;100.00;101041.63;4987268;28;20038;-74
2021/03/13 02:03:10;;;;;;;56.75;30.42;;;;;;;-1.77;100.00;101042.34;4984268;28;20031;-74
2021/03/13 02:05:39;;;;;;;58.10;29.67;;;;;;;-1.69;100.00;101042.59;4993120;28;20034;-75
2021/03/13 02:08:19;;;;;;;58.90;30.52;;;;;;;-1.77;100.00;101042.34;4991469;28;20026;-75
2021/03/13 02:11:01;;;;;;;58.33;28.80;;;;;;;-1.71;100.00;101034.06;4968429;28;20469;-75
2021/03/13 02:13:43;;;;;;;61.45;29.70;;;;;;;-1.74;100.00;101029.91;4972084;28;20481;-75
2021/03/13 02:16:27;;;;;;;;;;;;;;;-1.72;100.00;101033.25;4987130;28;20030;-75
2021/03/13 02:19:30;;;;;;;55.28;27.33;;;;;;;-1.98;100.00;101040.44;4969307;28;19914;-74
2021/03/13 02:22:06;;;;;;;60.72;30.00;;;;;;;-1.66;100.00;101034.53;4963208;28;20469;-75
2021/03/13 02:24:40;;;;;;;70.55;38.10;;;;;;;-1.72;100.00;101022.81;4982008;28;20109;-74
2021/03/13 02:27:16;;;;;;;78.60;38.17;;;;;;;-1.59;100.00;101024.47;4986423;28;20364;-74
2021/03/13 02:29:50;;;;;;;79.45;41.67;;;;;;;-1.66;100.00;101019.75;4971065;28;20137;-74
2021/03/13 02:32:18;;;;;;;67.50;34.78;;;;;;;-1.98;100.00;101017.00;4981667;28;20485;-75
2021/03/13 02:34:45;;;;;;;62.53;33.75;;;;;;;-1.99;100.00;101028.38;4993400;28;20035;-74
2021/03/13 02:37:24;;;;;;;78.93;37.83;;;;;;;-1.99;100.00;101023.16;4991962;28;20424;-74
2021/03/13 02:39:53;;;;;;;75.00;38.33;;;;;;;-1.81;100.00;101023.53;4983873;28;20109;-75
2021/03/13 02:42:20;;;;;;;68.97;36.53;;;;;;;-1.81;100.00;101020.94;4972219;28;20026;-74
2021/03/13 02:44:47;;;;;;;82.97;39.03;;;;;;;-1.92;100.00;101023.53;4990619;28;20026;-74
2021/03/13 02:47:14;;;;;;;82.30;42.33;;;;;;;-1.88;100.00;101012.75;4971189;28;20026;-74
2021/03/13 02:49:43;;;;;;;77.07;38.25;;;;;;;-1.99;100.00;101002.34;4974982;28;20620;-74
2021/03/13 02:52:10;;;;;;;77.00;38.65;;;;;;;-1.93;100.00;100996.66;4975139;28;20031;-74
2021/03/13 02:54:37;;;;;;;108.72;54.25;;;;;;;-1.98;100.00;100990.16;4964807;28;20023;-75
2021/03/13 02:57:05;;;;;;;108.55;53.88;;;;;;;-2.23;100.00;100992.03;4970780;28;20027;-75
2021/03/13 02:59:30;;;;;;;98.25;48.35;;;;;;;-1.97;100.00;101000.44;4983482;28;20195;-74
2021/03/13 03:01:58;;;;;;;90.75;42.83;;;;;;;-1.82;100.00;101001.03;4981705;28;20511;-74
2021/03/13 03:04:25;;;;;;;83.30;40.90;;;;;;;-1.49;100.00;100999.34;4972147;28;20057;-74
2021/03/13 03:06:55;;;;;;;74.82;40.70;;;;;;;-1.49;100.00;101000.16;4977951;28;20026;-74
2021/03/13 03:09:23;;;;;;;68.47;35.72;;;;;;;-1.56;100.00;100990.38;4988399;28;20037;-75
2021/03/13 03:11:49;;;;;;;71.70;35.58;;;;;;;-1.33;100.00;100999.81;4968845;28;20045;-75
2021/03/13 03:14:17;;;;;;;65.13;33.60;;;;;;;-1.55;100.00;100999.81;4971335;28;20035;-74
2021/03/13 03:16:46;;;;;;;62.60;31.73;;;;;;;-1.51;100.00;100996.03;4989730;28;20026;-74
2021/03/13 03:19:15;;;;;;;62.30;32.38;;;;;;;-1.27;100.00;100994.09;4992603;28;20041;-75
2021/03/13 03:21:40;;;;;;;62.58;33.17;;;;;;;-1.12;100.00;100991.19;4992560;28;20101;-74
2021/03/13 03:24:10;;;;;;;74.72;42.63;;;;;;;-1.08;100.00;100985.63;4990065;28;20134;-75
2021/03/13 03:26:36;;;;;;;67.65;39.10;;;;;;;-1.10;100.00;100989.31;4976491;28;20026;-74
2021/03/13 03:29:02;;;;;;;63.97;34.67;;;;;;;-1.22;100.00;100997.16;4967700;28;20089;-74
2021/03/13 03:31:28;;;;;;;57.22;32.88;;;;;;;-1.21;100.00;100990.16;4975896;28;20026;-75
2021/03/13 03:33:53;;;;;;;60.45;30.60;;;;;;;-1.44;100.00;100981.59;4973939;28;20459;-75
2021/03/13 03:36:19;;;;;;;58.63;32.78;;;;;;;-1.40;100.00;100972.56;4976181;28;20062;-74
2021/03/13 03:38:45;;;;;;;59.63;32.25;;;;;;;-1.42;100.00;100979.69;4987048;28;20030;-75
2021/03/13 03:41:10;;;;;;;55.80;29.58;;;;;;;-1.53;100.00;100982.31;4986399;28;20513;-75
2021/03/13 03:43:40;;;;;;;58.30;31.10;;;;;;;-1.48;100.00;100993.22;4974300;28;20033;-74
2021/03/13 03:46:07;;;;;;;58.72;29.42;;;;;;;-1.29;100.00;100982.97;4991647;28;20030;-74
2021/03/13 03:48:35;;;;;;;54.67;29.55;;;;;;;-1.39;100.00;100982.06;4989803;28;20026;-74
2021/03/13 03:51:03;;;;;;;59.80;29.90;;;;;;;-1.26;100.00;100994.94;4975486;28;20034;-74
2021/03/13 03:53:38;;;;;;;59.35;30.40;;;;;;;-1.01;100.00;100993.78;4981790;28;20046;-74
2021/03/13 03:56:05;;;;;;;53.92;27.75;;;;;;;-1.03;100.00;101000.88;4975574;28;20438;-74
2021/03/13 03:58:38;;;;;;;52.30;27.88;;;;;;;-0.88;100.00;100991.00;4988220;28;20177;-74
2021/03/13 04:01:06;;;;;;;49.20;26.95;;;;;;;-1.05;100.00;100984.56;4948791;28;20054;-74
2021/03/13 04:03:32;;;;;;;49.65;24.52;;;;;;;-0.94;100.00;100992.31;4971162;28;20137;-74
2021/03/13 04:05:58;;;;;;;54.70;29.75;;;;;;;-1.01;100.00;101010.25;4971049;28;20045;-74
2021/03/13 04:08:24;;;;;;;51.97;29.92;;;;;;;-1.25;100.00;100997.41;4972079;28;20058;-74
2021/03/13 04:10:53;;;;;;;50.15;27.80;;;;;;;-1.12;100.00;101010.31;4973002;28;20055;-74
2021/03/13 04:13:21;;;;;;;54.97;28.67;;;;;;;-0.89;100.00;100999.78;4976557;28;20034;-74
2021/03/13 04:15:48;;;;;;;49.70;27.65;;;;;;;-1.08;100.00;101016.91;4976657;28;20030;-74
2021/03/13 04:18:16;;;;;;;53.10;27.90;;;;;;;-1.06;100.00;101019.38;4975689;28;20927;-74
2021/03/13 04:20:46;;;;;;;49.92;27.55;;;;;;;-0.92;100.00;101025.16;4989222;28;20034;-74
2021/03/13 04:23:12;;;;;;;49.13;28.27;;;;;;;-0.79;100.00;101018.94;4970505;28;20030;-74
2021/03/13 04:25:39;;;;;;;58.70;28.92;;;;;;;-0.87;100.00;101022.19;4976352;28;20022;-74
2021/03/13 04:28:04;;;;;;;73.45;42.45;;;;;;;-0.76;100.00;101022.13;4970215;28;20038;-74
2021/03/13 04:30:30;;;;;;;51.75;26.65;;;;;;;-0.83;100.00;101033.19;4988098;28;20031;-74
2021/03/13 04:32:58;;;;;;;52.50;27.05;;;;;;;-0.97;100.00;101036.91;4971668;28;20027;-74
2021/03/13 04:35:25;;;;;;;54.58;28.23;;;;;;;-0.60;100.00;101026.13;4988235;28;20034;-74
2021/03/13 04:37:52;;;;;;;52.50;29.42;;;;;;;-0.61;100.00;101012.22;4973983;28;20143;-74
2021/03/13 04:40:18;;;;;;;55.28;31.08;;;;;;;-0.59;100.00;101006.88;4962805;28;20377;-74
2021/03/13 04:42:46;;;;;;;59.15;31.35;;;;;;;-0.63;100.00;100998.50;4991515;28;20037;-74
2021/03/13 04:45:13;;;;;;;60.08;31.83;;;;;;;-0.60;100.00;100992.19;4967810;28;20061;-75
2021/03/13 04:47:58;;;;;;;102.10;53.35;;;;;;;-0.62;100.00;100984.47;4988421;28;20382;-74
2021/03/13 04:50:23;;;;;;;93.82;49.30;;;;;;;-1.12;100.00;100986.84;4986258;28;20483;-74
2021/03/13 04:52:50;;;;;;;153.98;71.28;;;;;;;-1.04;100.00;100984.41;4967539;28;20038;-74
2021/03/13 04:55:15;;;;;;;110.55;52.70;;;;;;;-0.85;100.00;100983.75;4972950;28;20455;-75
2021/03/13 04:57:41;;;;;;;86.65;46.33;;;;;;;-0.74;100.00;100975.06;4976036;28;20033;-75
2021/03/13 05:00:10;;;;;;;85.60;45.20;;;;;;;-0.82;100.00;100975.66;4988028;28;20029;-74
2021/03/13 05:02:35;;;;;;;80.78;42.80;;;;;;;-0.63;100.00;100974.19;4984192;28;20034;-74
2021/03/13 05:05:01;;;;;;;92.93;46.35;;;;;;;-0.53;100.00;100967.25;4970368;28;20018;-74
2021/03/13 05:07:26;;;;;;;94.75;46.38;;;;;;;-0.46;100.00;100976.19;4973675;28;20381;-74
2021/03/13 05:09:52;;;;;;;88.57;45.72;;;;;;;-0.67;100.00;100983.19;4976473;28;20444;-74
2021/03/13 05:12:17;;;;;;;85.10;45.88;;;;;;;-0.76;100.00;100992.59;4974379;28;20050;-74
2021/03/13 05:14:43;;;;;;;93.38;47.20;;;;;;;-0.51;100.00;100987.03;4969914;28;20487;-75
2021/03/13 05:17:08;;;;;;;89.50;46.10;;;;;;;-0.50;100.00;100996.50;4975209;28;20085;-75
2021/03/13 05:19:33;;;;;;;93.55;49.40;;;;;;;-0.41;100.00;100992.31;4991825;28;20037;-74
2021/03/13 05:21:59;;;;;;;94.50;49.90;;;;;;;-0.48;100.00;100985.97;4965218;28;20103;-75
2021/03/13 05:24:24;;;;;;;79.97;43.90;;;;;;;-0.35;100.00;100985.75;4975802;28;20034;-74
2021/03/13 05:26:50;;;;;;;80.90;42.75;;;;;;;-0.39;100.00;100987.81;4987724;28;20109;-75
2021/03/13 05:29:15;;;;;;;81.07;42.78;;;;;;;-0.39;100.00;100986.94;4988183;28;20085;-74
2021/03/13 05:31:41;;;;;;;80.95;44.28;;;;;;;-0.35;100.00;100998.81;4974854;28;20470;-74
2021/03/13 05:34:06;;;;;;;83.68;44.38;;;;;;;-0.44;100.00;101004.78;4990433;28;21123;-74
2021/03/13 05:36:31;;;;;;;76.57;43.15;;;;;;;-0.11;100.00;101007.19;4987224;28;20029;-74
2021/03/13 05:38:57;;;;;;;64.78;38.97;;;;;;;-0.18;100.00;101006.06;4987756;28;20423;-74
2021/03/13 05:41:22;;;;;;;67.22;37.95;;;;;;;-0.02;100.00;101010.81;4971491;28;20034;-74
2021/03/13 05:43:48;;;;;;;67.38;37.95;;;;;;;-0.10;100.00;101014.06;4990193;28;20501;-75
2021/03/13 05:46:15;;;;;;;74.60;39.28;;;;;;;-0.12;100.00;101016.00;4988273;28;20030;-74
2021/03/13 05:48:44;;;;;;;74.38;39.80;;;;;;;-0.04;100.00;101017.94;4988435;28;20363;-74
2021/03/13 05:51:11;;;;;;;72.85;40.53;;;;;;;-0.21;100.00;101010.69;4990574;28;20065;-74
2021/03/13 05:53:39;;;;;;;76.50;42.20;;;;;;;0.15;100.00;101011.97;4969848;28;20038;-74
2021/03/13 05:56:05;;;;;;;77.97;39.42;;;;;;;0.38;100.00;101023.06;4990488;28;20041;-74
2021/03/13 05:58:30;;;;;;;71.07;36.45;;;;;;;0.34;100.00;101021.69;4985918;28;20030;-74
2021/03/13 06:00:56;;;;;;;63.58;35.65;;;;;;;0.42;100.00;101033.16;4974963;28;20026;-75
2021/03/13 06:03:21;;;;;;;74.47;38.10;;;;;;;0.35;100.00;101031.19;4981580;28;20387;-74
2021/03/13 06:05:47;;;;;;;80.53;41.38;;;;;;;0.74;100.00;101028.69;4972775;28;20078;-74
2021/03/13 06:08:15;;;;;;;125.40;57.13;;;;;;;0.82;100.00;101026.25;4972300;28;20462;-75
2021/03/13 06:10:41;;;;;;;88.82;45.22;;;;;;;0.90;100.00;101024.56;4968856;28;20407;-74
2021/03/13 06:13:07;;;;;;;145.73;73.10;;;;;;;1.10;100.00;101024.63;4973517;28;20018;-74
2021/03/13 06:15:32;;;;;;;242.40;98.82;;;;;;;1.16;100.00;101031.09;4988061;28;20390;-75
2021/03/13 06:18:03;;;;;;;143.77;73.25;;;;;;;1.10;100.00;101029.84;4974665;28;20058;-74
2021/03/13 06:20:34;;;;;;;171.50;97.50;;;;;;;1.16;100.00;101042.38;4992130;28;20041;-74
2021/03/13 06:23:06;;;;;;;134.27;72.43;;;;;;;1.29;100.00;101036.88;4984556;28;20080;-74
2021/03/13 06:25:32;;;;;;;;;;;;;;;1.46;100.00;101038.81;4975297;28;20442;-74
2021/03/13 06:28:19;;;;;;;86.00;48.30;;;;;;;1.62;100.00;101050.50;4971259;28;19954;-74
2021/03/13 06:30:47;;;;;;;95.88;53.83;;;;;;;1.54;100.00;101053.81;4986858;28;20529;-74
2021/03/13 06:33:24;;;;;;;102.35;58.67;;;;;;;1.53;100.00;101042.50;4971000;28;20133;-74
2021/03/13 06:35:52;;;;;;;86.57;47.60;;;;;;;1.51;100.00;101046.22;4983085;28;20038;-74
2021/03/13 06:38:20;;;;;;;65.63;38.45;;;;;;;1.40;100.00;101049.81;5002531;28;20406;-74
2021/03/13 06:40:47;;;;;;;62.28;38.17;;;;;;;1.74;100.00;101052.00;4968102;28;20072;-74
2021/03/13 06:43:20;;;;;;;84.43;51.17;;;;;;;1.60;100.00;101048.84;4971277;28;20121;-74
2021/03/13 06:46:09;;;;;;;91.00;53.00;;;;;;;1.66;100.00;101059.72;4968903;28;20058;-74
2021/03/13 06:48:46;;;;;;;57.17;36.42;;;;;;;1.76;100.00;101071.03;4984297;28;20049;-74
2021/03/13 06:51:32;;;;;;;72.15;43.03;;;;;;;1.89;100.00;101061.06;4985621;28;20081;-74
2021/03/13 06:54:02;;;;;;;196.10;88.32;;;;;;;2.03;100.00;101060.63;4980036;28;20032;-74
2021/03/13 06:56:29;;;;;;;101.55;55.30;;;;;;;1.93;100.00;101065.06;4988041;28;20034;-74
2021/03/13 06:58:56;;;;;;;75.93;41.72;;;;;;;2.12;100.00;101065.97;4970899;28;20034;-74
2021/03/13 07:01:31;;;;;;;121.68;58.45;;;;;;;2.16;100.00;101054.25;4998877;28;20034;-74
2021/03/13 07:03:58;;;;;;;209.48;83.78;;;;;;;2.16;100.00;101046.41;4990417;28;20018;-74
2021/03/13 07:06:24;;;;;;;93.75;47.70;;;;;;;2.24;100.00;101057.81;4986461;28;20044;-74
2021/03/13 07:08:51;;;;;;;63.88;36.05;;;;;;;2.39;100.00;101052.94;4965511;28;20462;-74
2021/03/13 07:11:21;;;;;;;62.50;36.28;;;;;;;2.25;100.00;101061.25;4981200;28;20494;-74
2021/03/13 07:13:50;;;;;;;77.13;42.53;;;;;;;2.58;100.00;101074.81;4974710;28;20094;-74
2021/03/13 07:16:29;;;;;;;78.10;40.17;;;;;;;2.85;100.00;101082.66;4963340;28;20480;-74
2021/03/13 07:19:00;;;;;;;65.55;37.25;;;;;;;2.63;100.00;101078.66;4964130;28;20455;-74
2021/03/13 07:21:26;;;;;;;61.88;37.30;;;;;;;2.85;100.00;101095.78;4965649;28;20386;-74
2021/03/13 07:23:57;;;;;;;51.20;34.33;;;;;;;2.96;100.00;101100.00;4978343;28;20030;-74
2021/03/13 07:26:30;;;;;;;60.80;35.15;;;;;;;3.01;100.00;101112.69;4963679;28;20033;-74
2021/03/13 07:29:00;;;;;;;56.30;37.10;;;;;;;3.00;100.00;101111.06;4969841;28;20462;-74
2021/03/13 07:31:29;;;;;;;54.72;32.85;;;;;;;3.00;100.00;101097.94;4970249;28;20634;-74
2021/03/13 07:33:58;;;;;;;64.00;35.92;;;;;;;2.98;100.00;101090.19;4972120;28;20034;-74
2021/03/13 07:36:24;;;;;;;57.38;34.90;;;;;;;2.87;100.00;101093.00;4969478;28;20090;-74
2021/03/13 07:38:53;;;;;;;56.58;34.97;;;;;;;3.03;100.00;101085.34;4982232;28;20069;-74
2021/03/13 07:41:19;;;;;;;58.08;34.55;;;;;;;3.14;100.00;101092.16;4969262;28;20035;-74
2021/03/13 07:43:45;;;;;;;54.47;31.55;;;;;;;3.26;100.00;101088.34;4981529;28;20049;-74
2021/03/13 07:46:12;;;;;;;53.85;31.92;;;;;;;3.65;100.00;101104.63;4972422;28;20062;-74
2021/03/13 07:48:41;;;;;;;44.45;28.65;;;;;;;3.48;100.00;101113.34;4972550;28;20030;-74
2021/03/13 07:51:08;;;;;;;46.75;29.83;;;;;;;3.66;100.00;101111.56;4972178;28;20030;-74
2021/03/13 07:53:40;;;;;;;58.83;35.08;;;;;;;3.70;100.00;101108.63;4971834;28;20100;-74
2021/03/13 07:56:09;;;;;;;79.17;41.87;;;;;;;3.75;100.00;101093.19;4987408;28;20057;-74
2021/03/13 07:58:39;;;;;;;59.22;35.60;;;;;;;3.83;100.00;101096.72;4985627;28;20269;-74
2021/03/13 08:01:05;;;;;;;55.17;34.38;;;;;;;4.01;100.00;101093.25;4980133;28;20030;-74
2021/03/13 08:03:45;;;;;;;42.47;30.70;;;;;;;3.97;100.00;101095.38;4989364;28;20379;-74
2021/03/13 08:06:14;;;;;;;43.85;29.85;;;;;;;4.08;100.00;101081.94;4989487;28;20053;-74
2021/03/13 08:08:43;;;;;;;46.65;29.92;;;;;;;4.11;100.00;101084.28;4979752;28;20022;-74
2021/03/13 08:11:13;;;;;;;37.10;26.80;;;;;;;4.03;100.00;101078.97;4973419;28;20125;-74
2021/03/13 08:13:39;;;;;;;38.92;27.73;;;;;;;4.27;100.00;101080.94;4973086;28;20077;-74
2021/03/13 08:16:35;;;;;;;40.58;27.10;;;;;;;4.52;100.00;101081.06;4973287;28;20038;-74
2021/03/13 08:19:00;;;;;;;38.53;26.80;;;;;;;4.27;100.00;101080.94;4974399;28;20464;-74
2021/03/13 08:21:26;;;;;;;36.22;27.00;;;;;;;4.18;100.00;101073.97;4991171;28;20109;-74
2021/03/13 08:23:59;;;;;;;39.85;27.45;;;;;;;4.75;100.00;101087.41;4970004;28;20471;-74
2021/03/13 08:26:33;;;;;;;40.00;29.23;;;;;;;5.04;100.00;101084.38;4978176;28;20547;-74
2021/03/13 08:29:00;;;;;;;45.17;31.60;;;;;;;5.04;100.00;101088.81;4989525;28;20057;-74
2021/03/13 08:31:25;;;;;;;45.53;33.58;;;;;;;5.08;100.00;101084.88;4987928;28;20050;-74
2021/03/13 08:34:09;;;;;;;60.65;37.72;;;;;;;5.31;100.00;101085.09;4970416;28;20459;-74
2021/03/13 08:36:49;;;;;;;71.93;42.28;;;;;;;5.06;100.00;101086.84;4974368;28;20069;-74
2021/03/13 08:39:25;;;;;;;93.47;52.72;;;;;;;4.81;100.00;101099.94;4991804;28;20419;-74
2021/03/13 08:41:52;;;;;;;86.10;47.63;;;;;;;4.63;100.00;101108.88;4985139;28;20030;-74
2021/03/13 08:44:20;;;;;;;79.80;45.92;;;;;;;4.39;100.00;101107.78;4986771;28;20037;-74
2021/03/13 08:46:50;;;;;;;76.95;45.88;;;;;;;4.74;100.00;101104.16;4968781;28;20023;-74
2021/03/13 08:49:22;;;;;;;72.55;41.15;;;;;;;4.69;100.00;101097.72;4989959;28;20118;-75
2021/03/13 08:51:48;;;;;;;88.32;47.55;;;;;;;4.40;100.00;101109.44;4985947;28;20065;-74
2021/03/13 08:54:39;;;;;;;78.30;43.50;;;;;;;4.54;100.00;101105.41;4972634;28;20465;-74
2021/03/13 08:57:12;;;;;;;77.78;44.65;;;;;;;4.63;100.00;101108.88;4987257;28;20049;-74
2021/03/13 08:59:40;;;;;;;68.75;43.70;;;;;;;4.92;100.00;101098.81;4987978;28;20498;-74
2021/03/13 09:02:19;;;;;;;69.93;41.80;;;;;;;4.86;100.00;101094.19;4985340;28;20030;-74
2021/03/13 09:04:47;;;;;;;63.58;39.28;;;;;;;4.68;100.00;101098.72;4989237;28;20483;-74
2021/03/13 09:07:14;;;;;;;63.85;40.58;;;;;;;4.88;100.00;101105.38;4987050;28;20470;-74
2021/03/13 09:09:41;;;;;;;59.50;38.30;;;;;;;4.95;100.00;101103.75;5008221;28;20448;-74
2021/03/13 09:12:12;;;;;;;55.65;37.85;;;;;;;5.04;100.00;101113.31;4975602;28;20376;-74
2021/03/13 09:14:40;;;;;;;61.40;39.70;;;;;;;4.66;100.00;101109.41;4972473;28;20030;-74
2021/03/13 09:17:17;;;;;;;64.03;40.35;;;;;;;4.88;100.00;101102.75;4955693;28;20509;-74
2021/03/13 09:19:45;;;;;;;60.75;39.33;;;;;;;5.39;100.00;101114.09;4967420;28;20030;-74
2021/03/13 09:22:15;;;;;;;73.10;46.15;;;;;;;5.42;100.00;101115.56;4959659;28;20463;-74
2021/03/13 09:24:41;;;;;;;75.57;46.90;;;;;;;5.31;100.00;101110.59;4968586;28;20094;-74
2021/03/13 09:27:07;;;;;;;58.30;38.90;;;;;;;5.17;100.00;101104.13;4970799;28;20031;-74
2021/03/13 09:29:34;;;;;;;59.13;40.78;;;;;;;5.17;100.00;101098.88;4963680;28;20383;-74
2021/03/13 09:32:01;;;;;;;55.63;39.80;;;;;;;5.02;100.00;101096.88;4968527;28;20486;-74
2021/03/13 09:34:29;;;;;;;64.35;43.15;;;;;;;5.43;100.00;101089.06;4968896;28;20170;-74
2021/03/13 09:36:54;;;;;;;59.08;42.70;;;;;;;5.23;100.00;101099.09;4954227;28;20090;-74
2021/03/13 09:39:23;;;;;;;60.90;40.78;;;;;;;4.93;100.00;101116.28;4965117;28;20023;-74
2021/03/13 09:42:07;;;;;;;67.95;41.50;;;;;;;5.05;100.00;101120.25;4970500;28;20037;-74
2021/03/13 09:44:50;;;;;;;55.22;38.22;;;;;;;5.00;100.00;101132.25;4951338;28;20069;-74
2021/03/13 09:47:17;;;;;;;55.33;38.35;;;;;;;5.45;100.00;101142.41;4966822;28;20035;-74
2021/03/13 09:49:53;;;;;;;60.05;39.65;;;;;;;5.17;100.00;101139.19;4963383;28;20035;-74
2021/03/13 09:52:32;;;;;;;58.17;38.38;;;;;;;5.42;100.00;101134.84;4949658;28;20042;-74
2021/03/13 09:55:03;;;;;;;69.38;45.78;;;;;;;5.89;100.00;101136.84;4970432;28;20022;-74
2021/03/13 09:57:29;;;;;;;66.05;42.95;;;;;;;6.34;100.00;101132.88;4962807;28;20042;-74
2021/03/13 09:59:54;;;;;;;66.18;44.15;;;;;;;5.98;100.00;101127.16;4963549;28;20026;-74
2021/03/13 10:02:21;;;;;;;61.88;44.17;;;;;;;6.24;100.00;101115.59;4963664;28;20114;-74
2021/03/13 10:04:49;;;;;;;64.28;44.20;;;;;;;6.48;100.00;101114.72;4966320;28;20400;-74
2021/03/13 10:07:15;;;;;;;63.17;45.35;;;;;;;6.78;100.00;101123.69;4960661;28;20100;-74
2021/03/13 10:09:54;;;;;;;69.00;46.42;;;;;;;6.51;100.00;101122.31;4954736;28;20027;-74
2021/03/13 10:12:25;;;;;;;74.47;46.67;;;;;;;6.67;100.00;101124.06;4961240;28;20046;-74
2021/03/13 10:14:50;;;;;;;65.30;46.10;;;;;;;6.79;100.00;101114.78;4957940;28;20027;-74
2021/03/13 10:17:15;;;;;;;63.65;44.42;;;;;;;6.62;100.00;101119.28;4951183;28;20035;-74
2021/03/13 10:19:42;;;;;;;64.78;43.30;;;;;;;6.74;100.00;101115.28;4947567;28;20379;-74
2021/03/13 10:22:12;;;;;;;68.22;45.38;;;;;;;6.85;100.00;101127.28;4954303;28;20029;-74
2021/03/13 10:24:45;;;;;;;64.97;44.67;;;;;;;6.64;100.00;101127.84;4967455;28;20038;-74
2021/03/13 10:27:10;;;;;;;64.63;44.78;;;;;;;6.27;100.00;101131.09;4949717;28;20100;-74
2021/03/13 10:29:36;;;;;;;62.67;45.00;;;;;;;6.14;100.00;101131.56;4969133;28;20030;-74
2021/03/13 10:32:02;;;;;;;73.15;47.60;;;;;;;6.21;100.00;101152.88;4970948;28;20054;-74
2021/03/13 10:34:36;;;;;;;154.60;70.53;;;;;;;6.37;100.00;101158.94;4951355;28;20019;-74
2021/03/13 10:37:02;;;;;;;74.20;46.72;;;;;;;6.10;100.00;101148.75;4975391;28;20065;-74
2021/03/13 10:39:27;;;;;;;135.38;66.00;;;;;;;6.57;100.00;101145.38;4945451;28;20058;-74
2021/03/13 10:42:00;;;;;;;94.35;53.03;;;;;;;6.49;100.00;101130.38;4952849;28;20057;-74
2021/03/13 10:44:26;;;;;;;306.25;126.30;;;;;;;7.65;100.00;101124.34;4956805;28;20023;-74
2021/03/13 10:46:52;;;;;;;107.10;60.45;;;;;;;8.54;100.00;101123.75;4976091;28;20030;-74
2021/03/13 10:49:26;;;;;;;65.22;45.45;;;;;;;8.35;100.00;101131.19;4958042;28;20447;-74
2021/03/13 10:51:53;;;;;;;62.60;46.10;;;;;;;8.58;100.00;101125.03;4977052;28;20030;-74
2021/03/13 10:54:23;;;;;;;68.93;47.47;;;;;;;7.90;100.00;101132.94;4970618;28;20116;-74
2021/03/13 10:56:49;;;;;;;70.97;50.60;;;;;;;7.82;100.00;101127.69;4958125;28;20030;-74
2021/03/13 10:59:15;;;;;;;69.60;50.13;;;;;;;7.45;100.00;101133.75;4959913;28;20031;-74
2021/03/13 11:01:45;;;;;;;69.95;46.47;;;;;;;7.25;100.00;101138.66;4955987;28;20037;-73
2021/03/13 11:04:10;;;;;;;60.95;45.17;;;;;;;7.63;100.00;101142.22;4956185;28;20054;-74
2021/03/13 11:06:36;;;;;;;55.58;42.90;;;;;;;6.67;100.00;101129.34;4950860;28;20121;-74
2021/03/13 11:09:04;;;;;;;61.55;42.45;;;;;;;6.61;100.00;101128.19;4982278;28;20030;-74
2021/03/13 11:11:31;;;;;;;60.70;41.28;;;;;;;6.55;100.00;101134.16;4976641;28;20113;-73